sensor_id;sensor_type;location;lat;lon;timestamp;P1;durP1;ratioP1;P2;durP2;ratioP2
75997;SDS011;64685;48.762;44.822;2024-03-22T00:26:37;13.23;;;4.53;;
75997;SDS011;64685;48.762;44.822;2024-03-22T02:23:10;14.50;;;6.35;;
75997;SDS011;64685;48.762;44.822;2024-03-22T02:44:37;15.48;;;5.70;;
75997;SDS011;64685;48.762;44.822;2024-03-22T02:51:27;14.30;;;6.32;;
75997;SDS011;64685;48.762;44.822;2024-03-22T03:12:30;16.30;;;6.72;;
75997;SDS011;64685;48.762;44.822;2024-03-22T03:26:17;18.05;;;7.20;;
75997;SDS011;64685;48.762;44.822;2024-03-22T03:46:27;15.40;;;6.38;;
75997;SDS011;64685;48.762;44.822;2024-03-22T04:06:22;14.40;;;5.95;;
75997;SDS011;64685;48.762;44.822;2024-03-22T04:26:41;14.38;;;6.43;;
75997;SDS011;64685;48.762;44.822;2024-03-22T04:32:48;13.77;;;6.50;;
75997;SDS011;64685;48.762;44.822;2024-03-22T04:38:52;15.95;;;6.28;;
75997;SDS011;64685;48.762;44.822;2024-03-22T04:45:18;18.80;;;7.93;;
75997;SDS011;64685;48.762;44.822;2024-03-22T04:51:46;18.95;;;8.00;;
75997;SDS011;64685;48.762;44.822;2024-03-22T05:11:27;22.70;;;7.47;;
75997;SDS011;64685;48.762;44.822;2024-03-22T05:17:31;14.27;;;5.75;;
75997;SDS011;64685;48.762;44.822;2024-03-22T05:23:48;14.18;;;5.47;;
75997;SDS011;64685;48.762;44.822;2024-03-22T05:53:04;13.32;;;5.65;;
75997;SDS011;64685;48.762;44.822;2024-03-22T05:58:13;18.63;;;7.85;;
75997;SDS011;64685;48.762;44.822;2024-03-22T06:03:15;17.25;;;7.05;;
75997;SDS011;64685;48.762;44.822;2024-03-22T06:08:18;14.18;;;6.05;;
75997;SDS011;64685;48.762;44.822;2024-03-22T06:13:22;16.15;;;6.25;;
75997;SDS011;64685;48.762;44.822;2024-03-22T06:18:24;13.98;;;5.57;;
75997;SDS011;64685;48.762;44.822;2024-03-22T06:23:27;15.00;;;6.22;;
75997;SDS011;64685;48.762;44.822;2024-03-22T06:28:32;16.02;;;6.30;;
75997;SDS011;64685;48.762;44.822;2024-03-22T06:33:35;17.75;;;7.13;;
75997;SDS011;64685;48.762;44.822;2024-03-22T06:38:41;12.10;;;5.00;;
75997;SDS011;64685;48.762;44.822;2024-03-22T06:43:43;11.65;;;4.85;;
75997;SDS011;64685;48.762;44.822;2024-03-22T06:48:46;14.13;;;5.38;;
75997;SDS011;64685;48.762;44.822;2024-03-22T06:53:49;10.60;;;4.07;;
75997;SDS011;64685;48.762;44.822;2024-03-22T06:58:53;14.48;;;5.68;;
75997;SDS011;64685;48.762;44.822;2024-03-22T07:03:56;10.60;;;4.38;;
75997;SDS011;64685;48.762;44.822;2024-03-22T07:08:58;7.68;;;3.38;;
75997;SDS011;64685;48.762;44.822;2024-03-22T07:14:01;13.20;;;5.22;;
75997;SDS011;64685;48.762;44.822;2024-03-22T07:19:04;7.97;;;3.47;;
75997;SDS011;64685;48.762;44.822;2024-03-22T07:24:08;8.43;;;3.42;;
75997;SDS011;64685;48.762;44.822;2024-03-22T07:29:11;9.68;;;3.95;;
75997;SDS011;64685;48.762;44.822;2024-03-22T07:34:15;10.48;;;4.40;;
75997;SDS011;64685;48.762;44.822;2024-03-22T07:44:25;8.32;;;3.30;;
75997;SDS011;64685;48.762;44.822;2024-03-22T07:49:30;10.68;;;4.22;;
75997;SDS011;64685;48.762;44.822;2024-03-22T07:54:35;8.10;;;3.05;;
75997;SDS011;64685;48.762;44.822;2024-03-22T07:59:38;8.50;;;2.95;;
75997;SDS011;64685;48.762;44.822;2024-03-22T08:04:40;7.55;;;3.50;;
75997;SDS011;64685;48.762;44.822;2024-03-22T08:09:43;9.73;;;4.20;;
75997;SDS011;64685;48.762;44.822;2024-03-22T08:14:45;10.32;;;3.63;;
75997;SDS011;64685;48.762;44.822;2024-03-22T08:19:48;7.03;;;3.45;;
75997;SDS011;64685;48.762;44.822;2024-03-22T08:24:50;6.95;;;2.63;;
75997;SDS011;64685;48.762;44.822;2024-03-22T08:29:53;13.77;;;5.47;;
75997;SDS011;64685;48.762;44.822;2024-03-22T08:34:55;10.57;;;4.97;;
75997;SDS011;64685;48.762;44.822;2024-03-22T08:39:57;10.48;;;3.53;;
75997;SDS011;64685;48.762;44.822;2024-03-22T08:45:00;8.43;;;3.40;;
75997;SDS011;64685;48.762;44.822;2024-03-22T08:50:04;6.90;;;3.00;;
75997;SDS011;64685;48.762;44.822;2024-03-22T08:55:07;7.18;;;2.50;;
75997;SDS011;64685;48.762;44.822;2024-03-22T09:00:10;5.78;;;2.42;;
75997;SDS011;64685;48.762;44.822;2024-03-22T09:05:13;8.48;;;2.95;;
75997;SDS011;64685;48.762;44.822;2024-03-22T09:10:16;6.30;;;2.60;;
75997;SDS011;64685;48.762;44.822;2024-03-22T09:15:18;10.25;;;3.30;;
75997;SDS011;64685;48.762;44.822;2024-03-22T09:20:21;6.05;;;2.78;;
75997;SDS011;64685;48.762;44.822;2024-03-22T09:25:24;7.50;;;3.45;;
75997;SDS011;64685;48.762;44.822;2024-03-22T09:38:10;6.97;;;2.55;;
75997;SDS011;64685;48.762;44.822;2024-03-22T09:43:13;5.65;;;2.85;;
75997;SDS011;64685;48.762;44.822;2024-03-22T09:48:20;9.38;;;3.55;;
75997;SDS011;64685;48.762;44.822;2024-03-22T09:53:23;8.18;;;2.60;;
75997;SDS011;64685;48.762;44.822;2024-03-22T10:06:26;5.72;;;2.55;;
75997;SDS011;64685;48.762;44.822;2024-03-22T10:11:28;6.50;;;2.47;;
75997;SDS011;64685;48.762;44.822;2024-03-22T10:16:35;6.85;;;2.03;;
75997;SDS011;64685;48.762;44.822;2024-03-22T10:21:37;5.72;;;2.15;;
75997;SDS011;64685;48.762;44.822;2024-03-22T10:26:43;3.92;;;1.77;;
75997;SDS011;64685;48.762;44.822;2024-03-22T10:31:45;6.45;;;2.00;;
75997;SDS011;64685;48.762;44.822;2024-03-22T10:36:49;4.25;;;1.65;;
75997;SDS011;64685;48.762;44.822;2024-03-22T10:41:52;6.50;;;1.63;;
75997;SDS011;64685;48.762;44.822;2024-03-22T10:46:56;5.05;;;1.90;;
75997;SDS011;64685;48.762;44.822;2024-03-22T10:52:03;3.17;;;1.40;;
75997;SDS011;64685;48.762;44.822;2024-03-22T10:57:12;5.43;;;1.77;;
75997;SDS011;64685;48.762;44.822;2024-03-22T11:02:17;5.68;;;1.88;;
75997;SDS011;64685;48.762;44.822;2024-03-22T11:07:20;5.63;;;2.35;;
75997;SDS011;64685;48.762;44.822;2024-03-22T11:12:24;8.05;;;2.30;;
75997;SDS011;64685;48.762;44.822;2024-03-22T11:17:27;7.47;;;2.60;;
75997;SDS011;64685;48.762;44.822;2024-03-22T11:22:32;4.78;;;1.70;;
75997;SDS011;64685;48.762;44.822;2024-03-22T11:27:34;6.45;;;1.70;;
75997;SDS011;64685;48.762;44.822;2024-03-22T11:32:37;5.55;;;2.60;;
75997;SDS011;64685;48.762;44.822;2024-03-22T11:37:45;6.05;;;1.73;;
75997;SDS011;64685;48.762;44.822;2024-03-22T11:42:48;7.55;;;1.83;;
75997;SDS011;64685;48.762;44.822;2024-03-22T11:47:53;6.35;;;2.17;;
75997;SDS011;64685;48.762;44.822;2024-03-22T11:52:56;6.15;;;1.83;;
75997;SDS011;64685;48.762;44.822;2024-03-22T11:57:58;9.68;;;4.57;;
75997;SDS011;64685;48.762;44.822;2024-03-22T12:03:01;6.97;;;2.00;;
75997;SDS011;64685;48.762;44.822;2024-03-22T12:08:07;6.30;;;2.22;;
75997;SDS011;64685;48.762;44.822;2024-03-22T12:13:10;7.70;;;3.38;;
75997;SDS011;64685;48.762;44.822;2024-03-22T12:18:13;6.15;;;2.10;;
75997;SDS011;64685;48.762;44.822;2024-03-22T12:23:15;5.97;;;1.83;;
75997;SDS011;64685;48.762;44.822;2024-03-22T12:28:18;6.05;;;2.00;;
75997;SDS011;64685;48.762;44.822;2024-03-22T12:33:22;6.82;;;1.95;;
75997;SDS011;64685;48.762;44.822;2024-03-22T12:38:25;8.20;;;1.90;;
75997;SDS011;64685;48.762;44.822;2024-03-22T12:43:29;12.55;;;2.58;;
75997;SDS011;64685;48.762;44.822;2024-03-22T12:48:31;8.73;;;2.45;;
75997;SDS011;64685;48.762;44.822;2024-03-22T12:53:34;11.73;;;3.35;;
75997;SDS011;64685;48.762;44.822;2024-03-22T12:58:36;6.30;;;1.85;;
75997;SDS011;64685;48.762;44.822;2024-03-22T13:03:39;5.13;;;2.22;;
75997;SDS011;64685;48.762;44.822;2024-03-22T13:08:41;6.20;;;2.10;;
75997;SDS011;64685;48.762;44.822;2024-03-22T13:13:44;6.07;;;1.90;;
75997;SDS011;64685;48.762;44.822;2024-03-22T13:18:46;8.55;;;2.45;;
75997;SDS011;64685;48.762;44.822;2024-03-22T13:23:49;11.13;;;3.42;;
75997;SDS011;64685;48.762;44.822;2024-03-22T13:28:52;8.38;;;3.00;;
75997;SDS011;64685;48.762;44.822;2024-03-22T13:33:54;10.20;;;2.90;;
75997;SDS011;64685;48.762;44.822;2024-03-22T13:38:57;9.65;;;2.70;;
75997;SDS011;64685;48.762;44.822;2024-03-22T13:44:00;12.02;;;2.25;;
75997;SDS011;64685;48.762;44.822;2024-03-22T13:49:16;10.23;;;2.60;;
75997;SDS011;64685;48.762;44.822;2024-03-22T13:54:22;8.02;;;2.13;;
75997;SDS011;64685;48.762;44.822;2024-03-22T13:59:30;5.63;;;1.75;;
75997;SDS011;64685;48.762;44.822;2024-03-22T14:04:36;4.47;;;1.48;;
75997;SDS011;64685;48.762;44.822;2024-03-22T14:09:40;9.00;;;2.50;;
75997;SDS011;64685;48.762;44.822;2024-03-22T14:14:47;6.25;;;2.33;;
75997;SDS011;64685;48.762;44.822;2024-03-22T14:19:53;6.07;;;2.00;;
75997;SDS011;64685;48.762;44.822;2024-03-22T14:25:00;6.22;;;1.83;;
75997;SDS011;64685;48.762;44.822;2024-03-22T14:30:06;4.43;;;1.85;;
75997;SDS011;64685;48.762;44.822;2024-03-22T14:35:12;6.07;;;2.00;;
75997;SDS011;64685;48.762;44.822;2024-03-22T14:40:15;6.70;;;1.88;;
75997;SDS011;64685;48.762;44.822;2024-03-22T14:45:19;3.78;;;1.15;;
75997;SDS011;64685;48.762;44.822;2024-03-22T14:50:26;3.90;;;1.63;;
75997;SDS011;64685;48.762;44.822;2024-03-22T14:55:54;7.18;;;2.72;;
75997;SDS011;64685;48.762;44.822;2024-03-22T15:01:06;11.38;;;4.55;;
75997;SDS011;64685;48.762;44.822;2024-03-22T15:06:11;9.77;;;2.40;;
75997;SDS011;64685;48.762;44.822;2024-03-22T15:11:20;11.55;;;2.58;;
75997;SDS011;64685;48.762;44.822;2024-03-22T15:16:45;7.15;;;2.85;;
75997;SDS011;64685;48.762;44.822;2024-03-22T15:21:50;5.70;;;1.92;;
75997;SDS011;64685;48.762;44.822;2024-03-22T15:27:05;7.38;;;2.88;;
75997;SDS011;64685;48.762;44.822;2024-03-22T15:32:31;9.23;;;2.65;;
75997;SDS011;64685;48.762;44.822;2024-03-22T15:37:47;7.85;;;2.50;;
75997;SDS011;64685;48.762;44.822;2024-03-22T15:43:06;6.70;;;2.67;;
75997;SDS011;64685;48.762;44.822;2024-03-22T15:48:23;7.38;;;2.85;;
75997;SDS011;64685;48.762;44.822;2024-03-22T15:53:36;13.52;;;4.22;;
75997;SDS011;64685;48.762;44.822;2024-03-22T15:58:56;15.10;;;5.82;;
75997;SDS011;64685;48.762;44.822;2024-03-22T16:04:12;15.02;;;5.65;;
75997;SDS011;64685;48.762;44.822;2024-03-22T16:09:40;18.75;;;6.03;;
75997;SDS011;64685;48.762;44.822;2024-03-22T16:15:11;17.83;;;6.55;;
75997;SDS011;64685;48.762;44.822;2024-03-22T16:21:14;17.10;;;6.72;;
75997;SDS011;64685;48.762;44.822;2024-03-22T16:26:47;16.10;;;7.65;;
75997;SDS011;64685;48.762;44.822;2024-03-22T16:32:29;19.20;;;6.20;;
75997;SDS011;64685;48.762;44.822;2024-03-22T16:37:59;16.30;;;6.65;;
75997;SDS011;64685;48.762;44.822;2024-03-22T16:43:44;14.48;;;6.53;;
75997;SDS011;64685;48.762;44.822;2024-03-22T16:49:31;16.38;;;6.07;;
75997;SDS011;64685;48.762;44.822;2024-03-22T16:55:04;17.45;;;6.50;;
75997;SDS011;64685;48.762;44.822;2024-03-22T17:00:51;15.27;;;6.10;;
75997;SDS011;64685;48.762;44.822;2024-03-22T17:06:42;18.65;;;7.00;;
75997;SDS011;64685;48.762;44.822;2024-03-22T17:12:32;17.08;;;8.32;;
75997;SDS011;64685;48.762;44.822;2024-03-22T17:18:18;17.60;;;9.50;;
75997;SDS011;64685;48.762;44.822;2024-03-22T17:24:48;14.70;;;8.93;;
75997;SDS011;64685;48.762;44.822;2024-03-22T17:30:47;23.67;;;9.25;;
75997;SDS011;64685;48.762;44.822;2024-03-22T17:36:54;18.05;;;9.63;;
75997;SDS011;64685;48.762;44.822;2024-03-22T17:43:01;27.20;;;11.02;;
75997;SDS011;64685;48.762;44.822;2024-03-22T17:49:19;24.02;;;12.32;;
75997;SDS011;64685;48.762;44.822;2024-03-22T17:55:51;27.73;;;12.20;;
75997;SDS011;64685;48.762;44.822;2024-03-22T18:01:51;24.23;;;11.23;;
75997;SDS011;64685;48.762;44.822;2024-03-22T18:14:05;24.42;;;11.40;;
75997;SDS011;64685;48.762;44.822;2024-03-22T18:27:19;23.20;;;11.23;;
75997;SDS011;64685;48.762;44.822;2024-03-22T18:34:06;30.45;;;14.23;;
75997;SDS011;64685;48.762;44.822;2024-03-22T18:40:47;38.13;;;18.52;;
75997;SDS011;64685;48.762;44.822;2024-03-22T18:53:51;25.33;;;11.02;;
75997;SDS011;64685;48.762;44.822;2024-03-22T19:00:46;20.02;;;10.13;;
75997;SDS011;64685;48.762;44.822;2024-03-22T19:28:41;11.82;;;5.10;;
75997;SDS011;64685;48.762;44.822;2024-03-22T20:03:06;9.55;;;3.70;;
75997;SDS011;64685;48.762;44.822;2024-03-22T20:17:15;10.18;;;4.32;;
